sensor_id;sensor_type;location;lat;lon;timestamp;P1;durP1;ratioP1;P2;durP2;ratioP2
32780;SDS011;19136;47.032;15.502;2023-08-06T00:00:41;4.03;;;2.70;;
32780;SDS011;19136;47.032;15.502;2023-08-06T00:03:10;5.50;;;2.80;;
32780;SDS011;19136;47.032;15.502;2023-08-06T00:05:35;7.72;;;4.28;;
32780;SDS011;19136;47.032;15.502;2023-08-06T00:08:01;8.00;;;4.30;;
32780;SDS011;19136;47.032;15.502;2023-08-06T00:10:27;9.20;;;4.28;;
32780;SDS011;19136;47.032;15.502;2023-08-06T00:12:53;8.18;;;4.88;;
32780;SDS011;19136;47.032;15.502;2023-08-06T00:15:21;5.85;;;3.50;;
32780;SDS011;19136;47.032;15.502;2023-08-06T00:17:47;5.50;;;3.00;;
32780;SDS011;19136;47.032;15.502;2023-08-06T00:20:23;3.72;;;2.63;;
32780;SDS011;19136;47.032;15.502;2023-08-06T00:22:50;7.05;;;3.33;;
32780;SDS011;19136;47.032;15.502;2023-08-06T00:25:15;6.82;;;3.03;;
32780;SDS011;19136;47.032;15.502;2023-08-06T00:27:41;6.47;;;2.67;;
32780;SDS011;19136;47.032;15.502;2023-08-06T00:30:07;9.55;;;3.45;;
32780;SDS011;19136;47.032;15.502;2023-08-06T00:32:33;4.00;;;2.85;;
32780;SDS011;19136;47.032;15.502;2023-08-06T00:34:58;5.75;;;3.28;;
32780;SDS011;19136;47.032;15.502;2023-08-06T00:37:24;3.35;;;2.20;;
32780;SDS011;19136;47.032;15.502;2023-08-06T00:39:53;3.25;;;2.40;;
32780;SDS011;19136;47.032;15.502;2023-08-06T00:42:19;9.65;;;2.78;;
32780;SDS011;19136;47.032;15.502;2023-08-06T00:44:46;2.67;;;2.20;;
32780;SDS011;19136;47.032;15.502;2023-08-06T00:47:11;3.45;;;2.00;;
32780;SDS011;19136;47.032;15.502;2023-08-06T00:49:37;3.33;;;2.42;;
32780;SDS011;19136;47.032;15.502;2023-08-06T00:52:04;3.90;;;1.77;;
32780;SDS011;19136;47.032;15.502;2023-08-06T00:54:31;7.82;;;2.92;;
32780;SDS011;19136;47.032;15.502;2023-08-06T00:56:56;2.88;;;1.90;;
32780;SDS011;19136;47.032;15.502;2023-08-06T00:59:23;5.38;;;2.03;;
32780;SDS011;19136;47.032;15.502;2023-08-06T01:01:51;5.68;;;2.08;;
32780;SDS011;19136;47.032;15.502;2023-08-06T01:04:16;5.82;;;2.40;;
32780;SDS011;19136;47.032;15.502;2023-08-06T01:06:50;4.60;;;2.70;;
32780;SDS011;19136;47.032;15.502;2023-08-06T01:15:07;2.75;;;1.80;;
32780;SDS011;19136;47.032;15.502;2023-08-06T01:17:55;4.38;;;1.80;;
32780;SDS011;19136;47.032;15.502;2023-08-06T01:20:21;1.88;;;1.50;;
32780;SDS011;19136;47.032;15.502;2023-08-06T01:22:47;5.20;;;2.10;;
32780;SDS011;19136;47.032;15.502;2023-08-06T01:25:13;3.00;;;2.05;;
32780;SDS011;19136;47.032;15.502;2023-08-06T01:27:50;6.05;;;2.25;;
32780;SDS011;19136;47.032;15.502;2023-08-06T01:30:29;3.20;;;2.17;;
32780;SDS011;19136;47.032;15.502;2023-08-06T01:32:58;3.92;;;1.67;;
32780;SDS011;19136;47.032;15.502;2023-08-06T01:35:29;4.28;;;1.90;;
32780;SDS011;19136;47.032;15.502;2023-08-06T01:37:58;3.65;;;2.00;;
32780;SDS011;19136;47.032;15.502;2023-08-06T01:40:25;5.25;;;1.85;;
32780;SDS011;19136;47.032;15.502;2023-08-06T01:42:55;8.85;;;2.40;;
32780;SDS011;19136;47.032;15.502;2023-08-06T01:45:20;2.28;;;1.73;;
32780;SDS011;19136;47.032;15.502;2023-08-06T01:47:48;3.65;;;1.83;;
32780;SDS011;19136;47.032;15.502;2023-08-06T01:50:13;3.10;;;1.60;;
32780;SDS011;19136;47.032;15.502;2023-08-06T01:52:39;5.97;;;1.75;;
32780;SDS011;19136;47.032;15.502;2023-08-06T01:55:07;3.95;;;1.85;;
32780;SDS011;19136;47.032;15.502;2023-08-06T01:57:33;2.40;;;1.73;;
32780;SDS011;19136;47.032;15.502;2023-08-06T01:59:59;4.75;;;2.08;;
32780;SDS011;19136;47.032;15.502;2023-08-06T02:02:25;4.10;;;2.42;;
32780;SDS011;19136;47.032;15.502;2023-08-06T02:04:50;4.45;;;1.95;;
32780;SDS011;19136;47.032;15.502;2023-08-06T02:07:16;3.00;;;2.17;;
32780;SDS011;19136;47.032;15.502;2023-08-06T02:09:42;5.30;;;1.70;;
32780;SDS011;19136;47.032;15.502;2023-08-06T02:12:07;6.18;;;2.60;;
32780;SDS011;19136;47.032;15.502;2023-08-06T02:14:34;6.78;;;1.70;;
32780;SDS011;19136;47.032;15.502;2023-08-06T02:17:00;3.10;;;1.83;;
32780;SDS011;19136;47.032;15.502;2023-08-06T02:19:26;9.57;;;3.72;;
32780;SDS011;19136;47.032;15.502;2023-08-06T02:21:51;4.43;;;2.20;;
32780;SDS011;19136;47.032;15.502;2023-08-06T02:24:17;3.25;;;2.13;;
32780;SDS011;19136;47.032;15.502;2023-08-06T02:26:42;7.05;;;3.53;;
32780;SDS011;19136;47.032;15.502;2023-08-06T02:29:08;9.10;;;2.03;;
32780;SDS011;19136;47.032;15.502;2023-08-06T02:31:34;6.65;;;3.72;;
32780;SDS011;19136;47.032;15.502;2023-08-06T02:34:00;8.15;;;3.58;;
32780;SDS011;19136;47.032;15.502;2023-08-06T02:36:25;11.05;;;2.65;;
32780;SDS011;19136;47.032;15.502;2023-08-06T02:38:54;5.90;;;2.25;;
32780;SDS011;19136;47.032;15.502;2023-08-06T02:41:21;5.97;;;2.40;;
32780;SDS011;19136;47.032;15.502;2023-08-06T02:43:47;5.93;;;3.28;;
32780;SDS011;19136;47.032;15.502;2023-08-06T02:46:13;3.45;;;2.10;;
32780;SDS011;19136;47.032;15.502;2023-08-06T02:48:38;5.03;;;2.63;;
32780;SDS011;19136;47.032;15.502;2023-08-06T02:51:07;4.90;;;2.83;;
32780;SDS011;19136;47.032;15.502;2023-08-06T02:53:32;6.78;;;3.58;;
32780;SDS011;19136;47.032;15.502;2023-08-06T02:56:02;6.05;;;3.15;;
32780;SDS011;19136;47.032;15.502;2023-08-06T02:58:38;4.20;;;2.20;;
32780;SDS011;19136;47.032;15.502;2023-08-06T03:01:12;5.40;;;3.92;;
32780;SDS011;19136;47.032;15.502;2023-08-06T03:03:48;10.90;;;4.55;;
32780;SDS011;19136;47.032;15.502;2023-08-06T03:06:20;4.00;;;2.70;;
32780;SDS011;19136;47.032;15.502;2023-08-06T03:08:49;7.03;;;2.92;;
32780;SDS011;19136;47.032;15.502;2023-08-06T03:11:15;4.95;;;2.75;;
32780;SDS011;19136;47.032;15.502;2023-08-06T03:13:41;4.85;;;2.78;;
32780;SDS011;19136;47.032;15.502;2023-08-06T03:16:07;4.45;;;3.10;;
32780;SDS011;19136;47.032;15.502;2023-08-06T03:18:33;5.43;;;2.90;;
32780;SDS011;19136;47.032;15.502;2023-08-06T03:21:02;31.05;;;6.95;;
32780;SDS011;19136;47.032;15.502;2023-08-06T03:23:29;7.07;;;4.40;;
32780;SDS011;19136;47.032;15.502;2023-08-06T03:25:55;8.55;;;3.83;;
32780;SDS011;19136;47.032;15.502;2023-08-06T03:28:21;74.72;;;6.90;;
32780;SDS011;19136;47.032;15.502;2023-08-06T03:30:48;46.38;;;7.05;;
32780;SDS011;19136;47.032;15.502;2023-08-06T03:33:14;6.90;;;5.30;;
32780;SDS011;19136;47.032;15.502;2023-08-06T03:35:39;30.15;;;6.43;;
32780;SDS011;19136;47.032;15.502;2023-08-06T03:38:06;9.80;;;5.90;;
32780;SDS011;19136;47.032;15.502;2023-08-06T03:40:32;17.52;;;6.60;;
32780;SDS011;19136;47.032;15.502;2023-08-06T03:43:00;25.25;;;7.25;;
32780;SDS011;19136;47.032;15.502;2023-08-06T03:45:26;34.63;;;7.28;;
32780;SDS011;19136;47.032;15.502;2023-08-06T03:47:51;102.95;;;12.20;;
32780;SDS011;19136;47.032;15.502;2023-08-06T03:50:17;14.05;;;6.40;;
32780;SDS011;19136;47.032;15.502;2023-08-06T03:52:43;12.70;;;6.50;;
32780;SDS011;19136;47.032;15.502;2023-08-06T03:55:10;12.60;;;6.70;;
32780;SDS011;19136;47.032;15.502;2023-08-06T03:57:36;41.78;;;9.93;;
32780;SDS011;19136;47.032;15.502;2023-08-06T04:00:02;21.52;;;7.45;;
32780;SDS011;19136;47.032;15.502;2023-08-06T04:02:40;17.58;;;7.65;;
32780;SDS011;19136;47.032;15.502;2023-08-06T04:05:06;19.45;;;6.25;;
32780;SDS011;19136;47.032;15.502;2023-08-06T04:07:32;28.40;;;8.10;;
32780;SDS011;19136;47.032;15.502;2023-08-06T04:09:59;11.10;;;6.43;;
32780;SDS011;19136;47.032;15.502;2023-08-06T04:12:28;19.50;;;6.32;;
32780;SDS011;19136;47.032;15.502;2023-08-06T04:14:56;112.28;;;13.65;;
32780;SDS011;19136;47.032;15.502;2023-08-06T04:17:23;23.75;;;8.23;;
32780;SDS011;19136;47.032;15.502;2023-08-06T04:19:50;12.88;;;7.20;;
32780;SDS011;19136;47.032;15.502;2023-08-06T04:22:19;8.85;;;5.07;;
32780;SDS011;19136;47.032;15.502;2023-08-06T04:24:45;8.38;;;5.63;;
32780;SDS011;19136;47.032;15.502;2023-08-06T04:27:11;7.68;;;4.97;;
32780;SDS011;19136;47.032;15.502;2023-08-06T04:29:38;9.23;;;4.57;;
32780;SDS011;19136;47.032;15.502;2023-08-06T04:32:05;11.23;;;5.53;;
32780;SDS011;19136;47.032;15.502;2023-08-06T04:34:32;10.48;;;5.38;;
32780;SDS011;19136;47.032;15.502;2023-08-06T04:36:58;6.47;;;4.40;;
32780;SDS011;19136;47.032;15.502;2023-08-06T04:39:25;7.75;;;4.10;;
32780;SDS011;19136;47.032;15.502;2023-08-06T04:41:57;6.18;;;3.45;;
32780;SDS011;19136;47.032;15.502;2023-08-06T04:44:23;6.45;;;3.00;;
32780;SDS011;19136;47.032;15.502;2023-08-06T04:46:49;5.80;;;2.80;;
32780;SDS011;19136;47.032;15.502;2023-08-06T04:49:15;4.72;;;2.80;;
32780;SDS011;19136;47.032;15.502;2023-08-06T04:51:42;6.47;;;3.30;;
32780;SDS011;19136;47.032;15.502;2023-08-06T04:54:11;5.95;;;2.53;;
32780;SDS011;19136;47.032;15.502;2023-08-06T04:56:36;4.85;;;2.65;;
32780;SDS011;19136;47.032;15.502;2023-08-06T04:59:02;2.90;;;2.60;;
32780;SDS011;19136;47.032;15.502;2023-08-06T05:01:29;6.65;;;3.97;;
32780;SDS011;19136;47.032;15.502;2023-08-06T05:03:55;6.32;;;3.03;;
32780;SDS011;19136;47.032;15.502;2023-08-06T05:06:20;7.60;;;2.60;;
32780;SDS011;19136;47.032;15.502;2023-08-06T05:08:46;5.18;;;3.10;;
32780;SDS011;19136;47.032;15.502;2023-08-06T05:11:12;7.22;;;2.70;;
32780;SDS011;19136;47.032;15.502;2023-08-06T05:13:41;3.30;;;2.90;;
32780;SDS011;19136;47.032;15.502;2023-08-06T05:16:07;5.22;;;3.28;;
32780;SDS011;19136;47.032;15.502;2023-08-06T05:18:33;3.42;;;2.95;;
32780;SDS011;19136;47.032;15.502;2023-08-06T05:21:00;4.60;;;2.80;;
32780;SDS011;19136;47.032;15.502;2023-08-06T05:23:25;5.32;;;2.30;;
32780;SDS011;19136;47.032;15.502;2023-08-06T05:25:51;5.88;;;2.40;;
32780;SDS011;19136;47.032;15.502;2023-08-06T05:28:17;2.53;;;2.30;;
32780;SDS011;19136;47.032;15.502;2023-08-06T05:30:43;3.38;;;2.63;;
32780;SDS011;19136;47.032;15.502;2023-08-06T05:33:08;6.85;;;3.25;;
32780;SDS011;19136;47.032;15.502;2023-08-06T05:35:37;6.05;;;3.10;;
32780;SDS011;19136;47.032;15.502;2023-08-06T05:38:02;4.90;;;2.70;;
32780;SDS011;19136;47.032;15.502;2023-08-06T05:40:28;3.58;;;2.55;;
32780;SDS011;19136;47.032;15.502;2023-08-06T05:42:54;6.63;;;2.67;;
32780;SDS011;19136;47.032;15.502;2023-08-06T05:45:20;4.90;;;2.50;;
32780;SDS011;19136;47.032;15.502;2023-08-06T05:47:47;3.70;;;1.95;;
32780;SDS011;19136;47.032;15.502;2023-08-06T05:50:13;5.28;;;1.98;;
32780;SDS011;19136;47.032;15.502;2023-08-06T05:52:39;3.05;;;1.70;;
32780;SDS011;19136;47.032;15.502;2023-08-06T05:55:05;4.57;;;2.50;;
32780;SDS011;19136;47.032;15.502;2023-08-06T05:57:32;5.47;;;1.70;;
32780;SDS011;19136;47.032;15.502;2023-08-06T05:59:57;4.78;;;2.60;;
32780;SDS011;19136;47.032;15.502;2023-08-06T06:02:26;4.32;;;2.17;;
32780;SDS011;19136;47.032;15.502;2023-08-06T06:04:52;4.00;;;2.38;;
32780;SDS011;19136;47.032;15.502;2023-08-06T06:07:18;4.43;;;1.83;;
32780;SDS011;19136;47.032;15.502;2023-08-06T06:09:43;2.70;;;1.92;;
32780;SDS011;19136;47.032;15.502;2023-08-06T06:12:09;6.68;;;2.42;;
32780;SDS011;19136;47.032;15.502;2023-08-06T06:14:35;2.30;;;1.95;;
32780;SDS011;19136;47.032;15.502;2023-08-06T06:17:01;5.72;;;2.17;;
32780;SDS011;19136;47.032;15.502;2023-08-06T06:19:27;3.03;;;1.90;;
32780;SDS011;19136;47.032;15.502;2023-08-06T06:21:55;5.40;;;1.92;;
32780;SDS011;19136;47.032;15.502;2023-08-06T06:24:23;3.33;;;2.08;;
32780;SDS011;19136;47.032;15.502;2023-08-06T06:26:48;4.63;;;1.98;;
32780;SDS011;19136;47.032;15.502;2023-08-06T06:29:14;4.70;;;2.30;;
32780;SDS011;19136;47.032;15.502;2023-08-06T06:31:43;4.53;;;3.00;;
32780;SDS011;19136;47.032;15.502;2023-08-06T06:34:08;3.92;;;2.97;;
32780;SDS011;19136;47.032;15.502;2023-08-06T06:36:34;5.05;;;2.83;;
32780;SDS011;19136;47.032;15.502;2023-08-06T06:39:02;4.38;;;3.00;;
32780;SDS011;19136;47.032;15.502;2023-08-06T06:41:31;4.20;;;2.55;;
32780;SDS011;19136;47.032;15.502;2023-08-06T06:46:31;3.47;;;2.03;;
32780;SDS011;19136;47.032;15.502;2023-08-06T06:48:56;5.57;;;2.25;;
32780;SDS011;19136;47.032;15.502;2023-08-06T06:51:22;5.13;;;2.25;;
32780;SDS011;19136;47.032;15.502;2023-08-06T06:53:48;5.47;;;2.15;;
32780;SDS011;19136;47.032;15.502;2023-08-06T06:56:13;4.50;;;2.30;;
32780;SDS011;19136;47.032;15.502;2023-08-06T06:58:39;3.88;;;2.40;;
32780;SDS011;19136;47.032;15.502;2023-08-06T07:01:06;4.10;;;2.22;;
32780;SDS011;19136;47.032;15.502;2023-08-06T07:03:32;5.88;;;2.20;;
32780;SDS011;19136;47.032;15.502;2023-08-06T07:06:01;5.72;;;2.63;;
32780;SDS011;19136;47.032;15.502;2023-08-06T07:08:29;4.45;;;2.00;;
32780;SDS011;19136;47.032;15.502;2023-08-06T07:11:04;5.10;;;2.17;;
32780;SDS011;19136;47.032;15.502;2023-08-06T07:13:32;4.40;;;1.65;;
32780;SDS011;19136;47.032;15.502;2023-08-06T07:16:02;5.00;;;2.40;;
32780;SDS011;19136;47.032;15.502;2023-08-06T07:18:28;4.00;;;1.80;;
32780;SDS011;19136;47.032;15.502;2023-08-06T07:20:54;7.03;;;2.65;;
32780;SDS011;19136;47.032;15.502;2023-08-06T07:23:21;5.47;;;1.40;;
32780;SDS011;19136;47.032;15.502;2023-08-06T07:25:51;3.63;;;1.20;;
32780;SDS011;19136;47.032;15.502;2023-08-06T07:28:17;6.20;;;1.27;;
32780;SDS011;19136;47.032;15.502;2023-08-06T07:31:13;4.45;;;1.30;;
32780;SDS011;19136;47.032;15.502;2023-08-06T07:33:42;6.75;;;1.20;;
32780;SDS011;19136;47.032;15.502;2023-08-06T07:36:14;2.80;;;1.25;;
32780;SDS011;19136;47.032;15.502;2023-08-06T07:38:48;3.65;;;1.58;;
32780;SDS011;19136;47.032;15.502;2023-08-06T07:41:22;3.25;;;1.25;;
32780;SDS011;19136;47.032;15.502;2023-08-06T07:43:55;2.92;;;1.40;;
32780;SDS011;19136;47.032;15.502;2023-08-06T07:48:54;7.25;;;1.90;;
32780;SDS011;19136;47.032;15.502;2023-08-06T07:51:20;3.95;;;1.50;;
32780;SDS011;19136;47.032;15.502;2023-08-06T07:53:48;2.22;;;1.60;;
32780;SDS011;19136;47.032;15.502;2023-08-06T07:56:19;3.83;;;2.00;;
32780;SDS011;19136;47.032;15.502;2023-08-06T07:58:53;3.08;;;1.60;;
32780;SDS011;19136;47.032;15.502;2023-08-06T08:01:19;5.90;;;1.70;;
32780;SDS011;19136;47.032;15.502;2023-08-06T08:03:56;5.57;;;1.88;;
32780;SDS011;19136;47.032;15.502;2023-08-06T08:06:27;4.07;;;1.63;;
32780;SDS011;19136;47.032;15.502;2023-08-06T08:08:56;4.85;;;2.10;;
32780;SDS011;19136;47.032;15.502;2023-08-06T08:11:25;4.07;;;2.03;;
32780;SDS011;19136;47.032;15.502;2023-08-06T08:13:54;3.03;;;1.90;;
32780;SDS011;19136;47.032;15.502;2023-08-06T08:16:23;2.45;;;1.70;;
32780;SDS011;19136;47.032;15.502;2023-08-06T08:18:54;5.47;;;2.00;;
32780;SDS011;19136;47.032;15.502;2023-08-06T08:21:21;4.25;;;1.80;;
32780;SDS011;19136;47.032;15.502;2023-08-06T08:23:46;2.88;;;1.80;;
32780;SDS011;19136;47.032;15.502;2023-08-06T08:26:12;3.28;;;2.25;;
32780;SDS011;19136;47.032;15.502;2023-08-06T08:28:38;3.25;;;1.95;;
32780;SDS011;19136;47.032;15.502;2023-08-06T08:31:07;7.18;;;2.35;;
32780;SDS011;19136;47.032;15.502;2023-08-06T08:33:34;5.43;;;1.90;;
32780;SDS011;19136;47.032;15.502;2023-08-06T08:36:00;3.63;;;1.58;;
32780;SDS011;19136;47.032;15.502;2023-08-06T08:38:26;3.80;;;2.20;;
32780;SDS011;19136;47.032;15.502;2023-08-06T08:40:52;3.58;;;1.77;;
32780;SDS011;19136;47.032;15.502;2023-08-06T08:43:20;2.92;;;2.03;;
32780;SDS011;19136;47.032;15.502;2023-08-06T08:48:16;7.70;;;2.58;;
32780;SDS011;19136;47.032;15.502;2023-08-06T08:50:44;2.35;;;1.90;;
32780;SDS011;19136;47.032;15.502;2023-08-06T08:53:13;4.25;;;1.88;;
32780;SDS011;19136;47.032;15.502;2023-08-06T08:55:39;3.08;;;1.98;;
32780;SDS011;19136;47.032;15.502;2023-08-06T08:58:06;3.92;;;2.00;;
32780;SDS011;19136;47.032;15.502;2023-08-06T09:00:32;3.95;;;1.98;;
32780;SDS011;19136;47.032;15.502;2023-08-06T09:02:58;3.53;;;2.10;;
32780;SDS011;19136;47.032;15.502;2023-08-06T09:05:24;4.15;;;2.35;;
32780;SDS011;19136;47.032;15.502;2023-08-06T09:07:58;4.75;;;2.47;;
32780;SDS011;19136;47.032;15.502;2023-08-06T09:10:27;3.55;;;1.75;;
32780;SDS011;19136;47.032;15.502;2023-08-06T09:12:53;3.08;;;1.75;;
32780;SDS011;19136;47.032;15.502;2023-08-06T09:15:23;4.53;;;1.45;;
32780;SDS011;19136;47.032;15.502;2023-08-06T09:17:51;2.28;;;1.50;;
32780;SDS011;19136;47.032;15.502;2023-08-06T09:20:17;4.28;;;1.50;;
32780;SDS011;19136;47.032;15.502;2023-08-06T09:22:43;3.42;;;1.50;;
32780;SDS011;19136;47.032;15.502;2023-08-06T09:25:11;2.25;;;1.63;;
32780;SDS011;19136;47.032;15.502;2023-08-06T09:27:38;2.03;;;1.40;;
32780;SDS011;19136;47.032;15.502;2023-08-06T09:30:05;2.65;;;1.60;;
32780;SDS011;19136;47.032;15.502;2023-08-06T09:32:45;2.95;;;1.60;;
32780;SDS011;19136;47.032;15.502;2023-08-06T09:35:17;1.60;;;1.33;;
32780;SDS011;19136;47.032;15.502;2023-08-06T09:37:43;5.18;;;1.80;;
32780;SDS011;19136;47.032;15.502;2023-08-06T09:40:24;2.13;;;1.55;;
32780;SDS011;19136;47.032;15.502;2023-08-06T09:42:50;2.38;;;1.50;;
32780;SDS011;19136;47.032;15.502;2023-08-06T09:45:16;3.03;;;1.63;;
32780;SDS011;19136;47.032;15.502;2023-08-06T09:47:48;1.55;;;1.15;;
32780;SDS011;19136;47.032;15.502;2023-08-06T09:50:19;1.98;;;1.55;;
32780;SDS011;19136;47.032;15.502;2023-08-06T09:52:48;9.70;;;1.63;;
32780;SDS011;19136;47.032;15.502;2023-08-06T09:55:18;3.53;;;1.48;;
32780;SDS011;19136;47.032;15.502;2023-08-06T09:57:44;2.60;;;1.20;;
32780;SDS011;19136;47.032;15.502;2023-08-06T10:00:12;1.65;;;1.25;;
32780;SDS011;19136;47.032;15.502;2023-08-06T10:02:38;4.65;;;1.42;;
32780;SDS011;19136;47.032;15.502;2023-08-06T10:05:07;2.55;;;1.30;;
32780;SDS011;19136;47.032;15.502;2023-08-06T10:10:38;5.55;;;1.15;;
32780;SDS011;19136;47.032;15.502;2023-08-06T10:13:06;5.57;;;1.27;;
32780;SDS011;19136;47.032;15.502;2023-08-06T10:15:41;1.90;;;1.00;;
32780;SDS011;19136;47.032;15.502;2023-08-06T10:18:07;2.50;;;0.90;;
32780;SDS011;19136;47.032;15.502;2023-08-06T10:20:34;3.38;;;1.02;;
32780;SDS011;19136;47.032;15.502;2023-08-06T10:23:03;4.65;;;1.15;;
32780;SDS011;19136;47.032;15.502;2023-08-06T10:25:33;1.75;;;1.02;;
32780;SDS011;19136;47.032;15.502;2023-08-06T10:28:00;1.83;;;1.00;;
32780;SDS011;19136;47.032;15.502;2023-08-06T10:30:41;3.08;;;1.20;;
32780;SDS011;19136;47.032;15.502;2023-08-06T10:33:15;1.75;;;0.90;;
32780;SDS011;19136;47.032;15.502;2023-08-06T10:35:48;4.40;;;1.27;;
32780;SDS011;19136;47.032;15.502;2023-08-06T10:38:22;1.13;;;0.70;;
32780;SDS011;19136;47.032;15.502;2023-08-06T10:40:49;1.13;;;0.70;;
32780;SDS011;19136;47.032;15.502;2023-08-06T10:43:31;1.10;;;0.70;;
32780;SDS011;19136;47.032;15.502;2023-08-06T10:46:08;1.70;;;0.80;;
32780;SDS011;19136;47.032;15.502;2023-08-06T10:51:11;2.13;;;0.93;;
32780;SDS011;19136;47.032;15.502;2023-08-06T10:57:39;0.95;;;0.70;;
32780;SDS011;19136;47.032;15.502;2023-08-06T11:00:05;1.70;;;0.77;;
32780;SDS011;19136;47.032;15.502;2023-08-06T11:02:34;1.20;;;0.90;;
32780;SDS011;19136;47.032;15.502;2023-08-06T11:05:09;1.20;;;0.60;;
32780;SDS011;19136;47.032;15.502;2023-08-06T11:07:39;3.88;;;0.68;;
32780;SDS011;19136;47.032;15.502;2023-08-06T11:10:10;0.30;;;0.30;;
32780;SDS011;19136;47.032;15.502;2023-08-06T11:12:42;1.63;;;0.73;;
32780;SDS011;19136;47.032;15.502;2023-08-06T11:15:10;5.90;;;0.70;;
32780;SDS011;19136;47.032;15.502;2023-08-06T11:17:37;1.08;;;0.60;;
32780;SDS011;19136;47.032;15.502;2023-08-06T11:20:11;1.25;;;0.60;;
32780;SDS011;19136;47.032;15.502;2023-08-06T11:22:45;1.25;;;0.60;;
32780;SDS011;19136;47.032;15.502;2023-08-06T11:25:10;1.83;;;0.90;;
32780;SDS011;19136;47.032;15.502;2023-08-06T11:27:39;1.05;;;0.50;;
32780;SDS011;19136;47.032;15.502;2023-08-06T11:30:07;2.33;;;0.73;;
32780;SDS011;19136;47.032;15.502;2023-08-06T11:32:45;2.45;;;0.70;;
32780;SDS011;19136;47.032;15.502;2023-08-06T11:35:29;1.38;;;0.77;;
32780;SDS011;19136;47.032;15.502;2023-08-06T11:37:57;1.15;;;0.68;;
32780;SDS011;19136;47.032;15.502;2023-08-06T11:40:35;1.77;;;0.60;;
32780;SDS011;19136;47.032;15.502;2023-08-06T11:43:06;1.23;;;0.60;;
32780;SDS011;19136;47.032;15.502;2023-08-06T11:45:49;2.00;;;0.80;;
32780;SDS011;19136;47.032;15.502;2023-08-06T11:48:17;1.52;;;0.75;;
32780;SDS011;19136;47.032;15.502;2023-08-06T11:51:01;2.47;;;0.90;;
32780;SDS011;19136;47.032;15.502;2023-08-06T11:53:27;1.00;;;0.90;;
32780;SDS011;19136;47.032;15.502;2023-08-06T11:55:58;1.05;;;0.50;;
32780;SDS011;19136;47.032;15.502;2023-08-06T11:58:28;2.47;;;0.60;;
32780;SDS011;19136;47.032;15.502;2023-08-06T12:00:57;2.92;;;0.80;;
32780;SDS011;19136;47.032;15.502;2023-08-06T12:03:28;1.83;;;0.82;;
32780;SDS011;19136;47.032;15.502;2023-08-06T12:05:55;1.75;;;0.70;;
32780;SDS011;19136;47.032;15.502;2023-08-06T12:08:26;1.20;;;0.70;;
32780;SDS011;19136;47.032;15.502;2023-08-06T12:10:55;1.52;;;0.80;;
32780;SDS011;19136;47.032;15.502;2023-08-06T12:13:21;1.95;;;1.00;;
32780;SDS011;19136;47.032;15.502;2023-08-06T12:15:49;2.72;;;0.50;;
32780;SDS011;19136;47.032;15.502;2023-08-06T12:18:22;2.70;;;0.57;;
32780;SDS011;19136;47.032;15.502;2023-08-06T12:20:50;2.05;;;0.95;;
32780;SDS011;19136;47.032;15.502;2023-08-06T12:23:16;3.25;;;0.68;;
32780;SDS011;19136;47.032;15.502;2023-08-06T12:28:52;1.02;;;0.68;;
32780;SDS011;19136;47.032;15.502;2023-08-06T12:34:23;1.27;;;0.70;;
32780;SDS011;19136;47.032;15.502;2023-08-06T12:36:54;1.33;;;0.90;;
32780;SDS011;19136;47.032;15.502;2023-08-06T13:16:39;1.20;;;0.52;;
32780;SDS011;19136;47.032;15.502;2023-08-06T13:47:41;1.08;;;0.50;;
32780;SDS011;19136;47.032;15.502;2023-08-06T13:50:30;1.50;;;0.50;;
32780;SDS011;19136;47.032;15.502;2023-08-06T13:53:25;1.15;;;0.60;;
32780;SDS011;19136;47.032;15.502;2023-08-06T13:56:15;0.47;;;0.40;;
32780;SDS011;19136;47.032;15.502;2023-08-06T13:59:04;0.77;;;0.43;;
32780;SDS011;19136;47.032;15.502;2023-08-06T14:01:54;0.90;;;0.50;;
32780;SDS011;19136;47.032;15.502;2023-08-06T14:04:48;1.83;;;0.60;;
32780;SDS011;19136;47.032;15.502;2023-08-06T14:07:35;1.58;;;0.63;;
32780;SDS011;19136;47.032;15.502;2023-08-06T14:10:21;1.90;;;0.75;;
32780;SDS011;19136;47.032;15.502;2023-08-06T14:13:10;0.82;;;0.60;;
32780;SDS011;19136;47.032;15.502;2023-08-06T14:16:01;1.58;;;0.75;;
32780;SDS011;19136;47.032;15.502;2023-08-06T14:18:50;0.82;;;0.50;;
32780;SDS011;19136;47.032;15.502;2023-08-06T14:21:52;0.85;;;0.60;;
32780;SDS011;19136;47.032;15.502;2023-08-06T14:24:47;1.27;;;0.60;;
32780;SDS011;19136;47.032;15.502;2023-08-06T14:27:36;2.28;;;0.60;;
32780;SDS011;19136;47.032;15.502;2023-08-06T14:34:29;1.30;;;0.80;;
32780;SDS011;19136;47.032;15.502;2023-08-06T14:37:18;1.70;;;0.90;;
32780;SDS011;19136;47.032;15.502;2023-08-06T14:40:08;1.98;;;0.90;;
32780;SDS011;19136;47.032;15.502;2023-08-06T14:43:23;3.70;;;0.70;;
32780;SDS011;19136;47.032;15.502;2023-08-06T14:46:17;1.35;;;0.75;;
32780;SDS011;19136;47.032;15.502;2023-08-06T14:49:07;1.48;;;0.70;;
32780;SDS011;19136;47.032;15.502;2023-08-06T14:54:42;1.02;;;0.50;;
32780;SDS011;19136;47.032;15.502;2023-08-06T14:57:31;1.20;;;0.60;;
32780;SDS011;19136;47.032;15.502;2023-08-06T15:00:26;0.82;;;0.50;;
32780;SDS011;19136;47.032;15.502;2023-08-06T15:03:17;3.38;;;0.60;;
32780;SDS011;19136;47.032;15.502;2023-08-06T15:06:08;3.72;;;0.60;;
32780;SDS011;19136;47.032;15.502;2023-08-06T15:09:07;1.85;;;0.40;;
32780;SDS011;19136;47.032;15.502;2023-08-06T15:12:04;4.22;;;0.50;;
32780;SDS011;19136;47.032;15.502;2023-08-06T15:14:51;0.70;;;0.38;;
32780;SDS011;19136;47.032;15.502;2023-08-06T15:17:51;2.10;;;0.40;;
32780;SDS011;19136;47.032;15.502;2023-08-06T15:20:41;2.45;;;0.30;;
32780;SDS011;19136;47.032;15.502;2023-08-06T15:23:32;1.38;;;0.30;;
32780;SDS011;19136;47.032;15.502;2023-08-06T15:26:28;0.63;;;0.30;;
32780;SDS011;19136;47.032;15.502;2023-08-06T15:29:23;0.45;;;0.35;;
32780;SDS011;19136;47.032;15.502;2023-08-06T15:32:09;0.88;;;0.30;;
32780;SDS011;19136;47.032;15.502;2023-08-06T15:34:57;0.22;;;0.20;;
32780;SDS011;19136;47.032;15.502;2023-08-06T15:37:55;1.08;;;0.25;;
32780;SDS011;19136;47.032;15.502;2023-08-06T15:40:42;0.73;;;0.30;;
32780;SDS011;19136;47.032;15.502;2023-08-06T15:43:34;0.32;;;0.25;;
32780;SDS011;19136;47.032;15.502;2023-08-06T15:46:21;1.05;;;0.50;;
32780;SDS011;19136;47.032;15.502;2023-08-06T15:49:13;0.85;;;0.47;;
32780;SDS011;19136;47.032;15.502;2023-08-06T15:51:59;0.55;;;0.30;;
32780;SDS011;19136;47.032;15.502;2023-08-06T15:54:49;0.52;;;0.25;;
32780;SDS011;19136;47.032;15.502;2023-08-06T15:57:41;0.20;;;0.20;;
32780;SDS011;19136;47.032;15.502;2023-08-06T16:00:30;0.45;;;0.10;;
32780;SDS011;19136;47.032;15.502;2023-08-06T16:03:17;1.58;;;0.50;;
32780;SDS011;19136;47.032;15.502;2023-08-06T16:06:03;0.50;;;0.20;;
32780;SDS011;19136;47.032;15.502;2023-08-06T16:08:50;0.98;;;0.30;;
32780;SDS011;19136;47.032;15.502;2023-08-06T16:11:38;0.93;;;0.20;;
32780;SDS011;19136;47.032;15.502;2023-08-06T16:14:24;0.47;;;0.25;;
32780;SDS011;19136;47.032;15.502;2023-08-06T16:17:12;0.45;;;0.30;;
32780;SDS011;19136;47.032;15.502;2023-08-06T16:20:01;0.85;;;0.22;;
32780;SDS011;19136;47.032;15.502;2023-08-06T16:22:49;1.65;;;0.70;;
32780;SDS011;19136;47.032;15.502;2023-08-06T16:25:39;0.52;;;0.28;;
32780;SDS011;19136;47.032;15.502;2023-08-06T16:28:32;2.67;;;0.30;;
32780;SDS011;19136;47.032;15.502;2023-08-06T16:31:20;0.60;;;0.20;;
32780;SDS011;19136;47.032;15.502;2023-08-06T16:34:07;0.30;;;0.10;;
32780;SDS011;19136;47.032;15.502;2023-08-06T16:36:53;0.13;;;0.10;;
32780;SDS011;19136;47.032;15.502;2023-08-06T16:39:40;1.35;;;0.52;;
32780;SDS011;19136;47.032;15.502;2023-08-06T16:42:27;1.08;;;0.30;;